Time,TemperatureF,DewpointF,PressureIn,WindDirection,WindDirectionDegrees,WindSpeedMPH,WindSpeedGustMPH,Humidity,HourlyPrecipIn,Conditions,Clouds,dailyrainin,SolarRadiationWatts/m^2,SoftwareType,DateUTC
2013-03-08 01:40:00,53.0,39.0,29.78,SSW,207,4.0,14.0,60,-99.99,,,-99.99,0.000000,,2013-03-08 09:40:00,
2013-03-08 02:01:00,53.0,39.0,29.79,SSE,164,0.0,1.0,58,-99.99,,,-99.99,0.000000,,2013-03-08 10:01:00,
2013-03-08 02:11:00,53.0,39.0,29.79,SSE,164,0.0,1.0,58,-99.99,,,-99.99,0.000000,,2013-03-08 10:11:00,
2013-03-08 02:21:00,53.0,39.0,29.78,SSW,207,4.0,14.0,60,-99.99,,,-99.99,0.000000,,2013-03-08 10:21:00,
2013-03-08 02:31:00,53.0,39.0,29.78,SSW,207,4.0,14.0,60,-99.99,,,-99.99,0.000000,,2013-03-08 10:31:00,
2013-03-08 04:01:00,52.0,39.0,29.74,SSE,168,1.0,4.0,60,-99.99,,,-99.99,0.000000,,2013-03-08 12:01:00,
2013-03-08 04:11:00,52.0,40.0,29.74,NE,43,1.0,4.0,63,-99.99,,,-99.99,0.000000,,2013-03-08 12:11:00,
2013-03-08 04:22:00,51.0,40.0,29.73,ENE,75,5.0,9.0,66,-99.99,,,-99.99,0.000000,,2013-03-08 12:22:00,
2013-03-08 04:32:00,52.0,40.0,29.73,East,82,3.0,6.0,65,-99.99,,,-99.99,0.000000,,2013-03-08 12:32:00,
2013-03-08 04:42:00,52.0,40.0,29.74,ESE,123,3.0,7.0,65,-99.99,,,-99.99,0.000000,,2013-03-08 12:42:00,
2013-03-08 04:52:00,52.0,40.0,29.73,SE,139,2.0,6.0,65,-99.99,,,-99.99,0.000000,,2013-03-08 12:52:00,
2013-03-08 05:01:00,52.0,40.0,29.73,East,96,2.0,6.0,64,-99.99,,,-99.99,0.000000,,2013-03-08 13:01:00,
2013-03-08 05:11:00,51.0,40.0,29.73,NNE,32,4.0,6.0,65,-99.99,,,-99.99,0.000000,,2013-03-08 13:11:00,
2013-03-08 05:21:00,51.0,40.0,29.73,NE,54,4.0,7.0,66,-99.99,,,-99.99,0.000000,,2013-03-08 13:21:00,
2013-03-08 05:32:00,51.0,40.0,29.73,NE,54,4.0,7.0,66,-99.99,,,-99.99,0.000000,,2013-03-08 13:32:00,
2013-03-08 05:42:00,51.0,40.0,29.73,ENE,57,2.0,5.0,66,-99.99,,,-99.99,0.000000,,2013-03-08 13:42:00,
2013-03-08 05:52:00,51.0,40.0,29.73,ENE,57,2.0,5.0,66,-99.99,,,-99.99,0.000000,,2013-03-08 13:52:00,
2013-03-08 06:02:00,51.0,41.0,29.74,NE,42,1.0,2.0,69,-99.99,,,-99.99,0.000000,,2013-03-08 14:02:00,
2013-03-08 06:11:00,51.0,41.0,29.74,NE,42,1.0,2.0,69,-99.99,,,-99.99,0.000000,,2013-03-08 14:11:00,
2013-03-08 06:22:00,51.0,43.0,29.75,North,6,1.0,2.0,74,-99.99,,,-99.99,0.000000,,2013-03-08 14:22:00,
2013-03-08 06:32:00,50.0,44.0,29.75,WNW,288,1.0,4.0,81,-99.99,,,-99.99,0.000000,,2013-03-08 14:32:00,
2013-03-08 06:42:00,50.0,41.0,29.76,South,181,6.0,11.0,71,-99.99,,,-99.99,0.000000,,2013-03-08 14:42:00,
2013-03-08 06:52:00,50.0,37.0,29.76,SSW,197,12.0,22.0,60,-99.99,,,-99.99,0.000000,,2013-03-08 14:52:00,
2013-03-08 07:02:00,50.0,35.0,29.77,South,182,10.0,21.0,58,-99.99,,,-99.99,10.000000,,2013-03-08 15:02:00,
2013-03-08 07:11:00,50.0,35.0,29.77,SSW,207,8.0,22.0,57,-99.99,,,-99.99,10.000000,,2013-03-08 15:11:00,
2013-03-08 07:21:00,50.0,36.0,29.77,SW,235,8.0,20.0,59,-99.99,,,-99.99,20.000000,,2013-03-08 15:21:00,
2013-03-08 07:30:00,48.0,38.0,29.76,NW,325,6.0,13.0,69,-99.99,,,-99.99,40.000000,,2013-03-08 15:30:00,
2013-03-08 07:31:00,50.0,37.0,29.78,East,87,5.0,15.0,63,-99.99,,,-99.99,40.000000,,2013-03-08 15:31:00,
2013-03-08 07:42:00,50.0,37.0,29.78,East,87,5.0,15.0,63,-99.99,,,-99.99,40.000000,,2013-03-08 15:42:00,
2013-03-08 07:52:00,49.0,33.0,29.77,South,171,3.0,6.0,54,-99.99,,,-99.99,40.000000,,2013-03-08 15:52:00,
2013-03-08 08:01:00,49.0,33.0,29.77,South,171,3.0,6.0,54,-99.99,,,-99.99,40.000000,,2013-03-08 16:01:00,
2013-03-08 08:11:00,49.0,33.0,29.77,South,171,3.0,6.0,54,-99.99,,,-99.99,40.000000,,2013-03-08 16:11:00,
2013-03-08 08:21:00,48.0,38.0,29.76,NW,325,6.0,13.0,69,-99.99,,,-99.99,40.000000,,2013-03-08 16:21:00,
2013-03-08 08:42:00,47.0,38.0,29.78,NW,316,3.0,7.0,72,-99.99,,,-99.99,80.000000,,2013-03-08 16:42:00,
2013-03-08 08:50:00,51.0,37.0,29.79,WNW,288,4.0,8.0,59,-99.99,,,-99.99,550.000000,,2013-03-08 16:50:00,
2013-03-08 08:52:00,48.0,38.0,29.78,East,81,2.0,5.0,69,-99.99,,,-99.99,280.000000,,2013-03-08 16:52:00,
2013-03-08 09:02:00,48.0,38.0,29.78,NNE,17,4.0,8.0,67,-99.99,,,-99.99,320.000000,,2013-03-08 17:02:00,
2013-03-08 09:11:00,51.0,37.0,29.78,NE,50,3.0,9.0,59,-99.99,,,-99.99,540.000000,,2013-03-08 17:11:00,
2013-03-08 09:21:00,51.0,37.0,29.79,WNW,288,4.0,8.0,59,-99.99,,,-99.99,550.000000,,2013-03-08 17:21:00,
2013-03-08 09:31:00,51.0,37.0,29.79,WNW,288,4.0,8.0,59,-99.99,,,-99.99,550.000000,,2013-03-08 17:31:00,
2013-03-08 09:41:00,51.0,37.0,29.79,WNW,288,4.0,8.0,59,-99.99,,,-99.99,550.000000,,2013-03-08 17:41:00,
2013-03-08 10:21:00,54.0,30.0,29.81,SSE,157,7.0,20.0,40,-99.99,,,-99.99,720.000000,,2013-03-08 18:21:00,
2013-03-08 10:31:00,54.0,30.0,29.81,SSE,157,7.0,20.0,40,-99.99,,,-99.99,720.000000,,2013-03-08 18:31:00,
2013-03-08 10:42:00,54.0,29.0,29.81,SW,225,10.0,31.0,38,-99.99,,,-99.99,740.000000,,2013-03-08 18:42:00,
2013-03-08 10:51:00,56.0,27.0,29.82,WSW,241,9.0,23.0,33,-99.99,,,-99.99,820.000000,,2013-03-08 18:51:00,
2013-03-08 11:01:00,56.0,27.0,29.82,SW,223,9.0,18.0,32,-99.99,,,-99.99,870.000000,,2013-03-08 19:01:00,
2013-03-08 11:10:00,58.0,26.0,29.82,SSE,159,8.0,21.0,29,-99.99,,,-99.99,930.000000,,2013-03-08 19:10:00,
2013-03-08 11:11:00,56.0,27.0,29.82,SW,223,9.0,18.0,32,-99.99,,,-99.99,870.000000,,2013-03-08 19:11:00,
2013-03-08 11:21:00,56.0,27.0,29.82,SW,223,9.0,18.0,32,-99.99,,,-99.99,870.000000,,2013-03-08 19:21:00,
2013-03-08 11:31:00,57.0,26.0,29.82,WSW,238,7.0,21.0,30,-99.99,,,-99.99,880.000000,,2013-03-08 19:31:00,
2013-03-08 11:41:00,58.0,26.0,29.82,SSE,159,8.0,21.0,29,-99.99,,,-99.99,930.000000,,2013-03-08 19:41:00,
2013-03-08 11:51:00,58.0,26.0,29.82,SSE,159,8.0,21.0,29,-99.99,,,-99.99,930.000000,,2013-03-08 19:51:00,
2013-03-08 12:01:00,58.0,26.0,29.82,SSE,159,8.0,21.0,29,-99.99,,,-99.99,930.000000,,2013-03-08 20:01:00,
2013-03-08 16:50:00,53.0,30.0,29.81,South,180,16.0,27.0,40,-99.99,,,-99.99,90.000000,,2013-03-09 00:50:00,
2013-03-08 17:01:00,54.0,29.0,29.81,SW,215,8.0,18.0,37,-99.99,,,-99.99,110.000000,,2013-03-09 01:01:00,
2013-03-08 17:12:00,54.0,29.0,29.81,South,191,7.0,17.0,38,-99.99,,,-99.99,100.000000,,2013-03-09 01:12:00,
2013-03-08 17:21:00,53.0,30.0,29.81,South,180,16.0,27.0,40,-99.99,,,-99.99,90.000000,,2013-03-09 01:21:00,
2013-03-08 17:31:00,53.0,30.0,29.81,South,180,16.0,27.0,40,-99.99,,,-99.99,90.000000,,2013-03-09 01:31:00,
2013-03-08 17:41:00,53.0,30.0,29.81,South,180,16.0,27.0,40,-99.99,,,-99.99,90.000000,,2013-03-09 01:41:00,
2013-03-08 19:52:00,51.0,31.0,29.85,SSW,195,12.0,24.0,46,-99.99,,,-99.99,0.000000,,2013-03-09 03:52:00,
2013-03-08 20:01:00,51.0,32.0,29.85,SSW,202,13.0,24.0,48,-99.99,,,-99.99,0.000000,,2013-03-09 04:01:00,
2013-03-08 20:11:00,50.0,33.0,29.86,South,179,12.0,22.0,50,-99.99,,,-99.99,0.000000,,2013-03-09 04:11:00,
2013-03-08 20:22:00,50.0,32.0,29.87,South,183,10.0,19.0,50,-99.99,,,-99.99,0.000000,,2013-03-09 04:22:00,
2013-03-08 20:31:00,49.0,34.0,29.89,North,356,3.0,6.0,55,-99.99,,,-99.99,0.000000,,2013-03-09 04:31:00,
2013-03-08 20:41:00,49.0,34.0,29.89,North,356,3.0,6.0,55,-99.99,,,-99.99,0.000000,,2013-03-09 04:41:00,
2013-03-08 20:51:00,49.0,33.0,29.89,SSW,199,11.0,26.0,54,-99.99,,,-99.99,0.000000,,2013-03-09 04:51:00,
2013-03-08 21:01:00,49.0,33.0,29.89,SSW,199,11.0,26.0,54,-99.99,,,-99.99,0.000000,,2013-03-09 05:01:00,
2013-03-08 21:11:00,49.0,32.0,29.89,SSW,198,14.0,30.0,52,-99.99,,,-99.99,0.000000,,2013-03-09 05:11:00,
2013-03-08 21:21:00,50.0,31.0,29.89,SSW,202,15.0,28.0,49,-99.99,,,-99.99,0.000000,,2013-03-09 05:21:00,
2013-03-08 21:31:00,50.0,32.0,29.89,SSW,200,15.0,28.0,50,-99.99,,,-99.99,0.000000,,2013-03-09 05:31:00,
2013-03-08 21:42:00,50.0,32.0,29.89,SSW,200,15.0,28.0,50,-99.99,,,-99.99,0.000000,,2013-03-09 05:42:00,
2013-03-08 21:52:00,50.0,33.0,29.90,SSW,197,14.0,25.0,51,-99.99,,,-99.99,0.000000,,2013-03-09 05:52:00,
2013-03-08 22:01:00,50.0,33.0,29.90,SSW,197,14.0,25.0,51,-99.99,,,-99.99,0.000000,,2013-03-09 06:01:00,
2013-03-08 22:10:00,50.0,32.0,29.90,SSW,202,15.0,29.0,50,-99.99,,,-99.99,0.000000,,2013-03-09 06:10:00,
2013-03-08 22:11:00,51.0,33.0,29.90,SSW,208,14.0,24.0,50,-99.99,,,-99.99,0.000000,,2013-03-09 06:11:00,
2013-03-08 22:22:00,51.0,33.0,29.90,SSW,206,16.0,28.0,50,-99.99,,,-99.99,0.000000,,2013-03-09 06:22:00,
2013-03-08 22:31:00,50.0,32.0,29.90,SSW,202,15.0,29.0,50,-99.99,,,-99.99,0.000000,,2013-03-09 06:31:00,
2013-03-08 22:40:00,51.0,33.0,29.91,SW,223,14.0,22.0,50,-99.99,,,-99.99,0.000000,,2013-03-09 06:40:00,
2013-03-08 22:42:00,50.0,32.0,29.90,SSW,202,15.0,29.0,50,-99.99,,,-99.99,0.000000,,2013-03-09 06:42:00,
2013-03-08 22:51:00,50.0,32.0,29.90,SSW,202,15.0,29.0,50,-99.99,,,-99.99,0.000000,,2013-03-09 06:51:00,
2013-03-08 23:01:00,50.0,32.0,29.90,SSW,202,15.0,29.0,50,-99.99,,,-99.99,0.000000,,2013-03-09 07:01:00,
2013-03-08 23:31:00,51.0,33.0,29.91,SW,223,14.0,22.0,50,-99.99,,,-99.99,0.000000,,2013-03-09 07:31:00,